New Geneva, Pennsylvania
Current Conditions -  °F | °C
As of 10:53 PM on Saturday 24 Jan 2015 (Local Time) from KMGW Reporting Station
Overcast Overcast  
Wind Chill: 23°   Ceiling: 800
Heat Index: 31°   Visibility: 8mi
Dew Point: 26°   Wind: 8mph
Humidity: 82%   Direction: 230°SW
Pressure: 29.74"   Gusts: NA
Location:  39.79°N, 79.91°W
Report Text: KMGW 250353Z 23007KT 8SM OVC008 M01/M03 A2974 RMK AO2 CIG 006V011 SLP081 T10061033
Loading
Personal Weather Stations






























Interactive Weather Map New forecast layout! Learn more

10-Day Weather Forecast

Advertisements
Track Severe Weather on mobile